Detall de PIREP

Printer-friendly versionPDF version

[2015/07/19 05:59:00]
Flight IATA:CT2111
Pilot Number:041
Company ICAO:CAT
Aircraft Type:BE58/A
PAX:3
Departing Airport: LEST
Destination Airport: LEVC
Alternate Airport:LELL
Online: VATSIM
Route:FORNO A33 CENTA
Flight Level:FL140
No Slew and time accel
No pause
Crash detect
Detect pilot in Cockpit between each 30 and 45 minutes
05:59 Zero fuel Weight: 4592 Lbs, Fuel Weight: 850 Lbs
05:59 VATSIM:LEST 190530Z 17004KT 140V200 9999 BKN014 BKN028 15/14 Q1019 NOSIG
05:59 VATSIM:LEVC 190530Z 25003KT CAVOK 23/21 Q1015 NOSIG
05:59 VOICE CATALONIAN
06:03 Parking Brakes off
06:08 Take-off
06:08 Take off Weight: 5438 Lbs
06:08 Wind: 174º @ 003 Knots Heading: 165º
06:08 POS N42º 54´ 06´´ W008º 25´ 01´´
06:08 Gear Up: 107 Knots
06:08 Flaps:1 at 107 Knots
06:08 Flaps:0 at 113 Knots
06:23 Wind:267º@031 Knots Heading: 127º Ground Speed: 210 Knots Altitude 13704 ft
06:23 TOC
06:23 Fuel Weight: 789 Lb
06:38 Wind:272º@032 Knots Heading: 129º Ground Speed: 235 Knots Altitude 14183 ft
06:53 Wind:267º@030 Knots Heading: 119º Ground Speed: 232 Knots Altitude 14212 ft
07:08 Wind:270º@015 Knots Heading: 117º Ground Speed: 229 Knots Altitude 14186 ft
07:23 Wind:274º@014 Knots Heading: 118º Ground Speed: 224 Knots Altitude 14150 ft
07:37 TOD
07:37 Fuel Weight: 513 Lb
07:38 Wind:272º@023 Knots Heading: 121º Ground Speed: 238 Knots Altitude 13398 ft
07:53 Wind:275º@013 Knots Heading: 120º Ground Speed: 212 Knots Altitude 5026 ft
08:01 Flaps:1 at 137 Knots
08:01 Gear Down: 130 Knots
08:01 Flaps:2 at 120 Knots
08:02 TouchDown:Rate -128 ft/min Speed: 88 Knots
08:02 Flaps:0 at 73 Knots
08:02 VATSIM:LEVC 190730Z 00000KT CAVOK 27/21 Q1015 NOSIG
08:02 Land
08:02 Wind:073º@001 Knots
08:02 Heading: 115º
08:02 Flight Duration: 01:54
08:02 Landing Weight: 5032 Lbs
08:02 POS N39º 29´ 37´´ W000º 29´ 37´´
08:04 Parking brakes on
08:04 Block to Block Duration: 02:01
08:04 Final Fuel: 440 Lbls
08:04 Spent Fuel: 410 Lbls
08:04 Flight Length: 413 NM
08:04 TOD Land Length: 85 NM

Exportar CSV

Powered by Drupal - Modified by Danger4k